createdAt,value
2023-03-08T00:00:15.485Z,4.23
2023-03-08T00:01:18.797Z,4.25
2023-03-08T00:02:21.581Z,4.26
2023-03-08T00:03:23.830Z,4.25
2023-03-08T00:04:26.763Z,4.24
2023-03-08T00:05:28.813Z,4.25
2023-03-08T00:06:31.884Z,4.24
2023-03-08T00:07:34.140Z,4.23
2023-03-08T00:08:37.122Z,4.22
2023-03-08T00:09:39.064Z,4.22
2023-03-08T00:10:43.143Z,4.23
2023-03-08T00:11:44.957Z,4.26
2023-03-08T00:12:47.802Z,4.26
2023-03-08T00:13:49.617Z,4.26
2023-03-08T00:14:52.410Z,4.26
2023-03-08T00:15:54.345Z,4.25
2023-03-08T00:16:57.104Z,4.25
2023-03-08T00:17:58.873Z,4.26
2023-03-08T00:19:01.771Z,4.28
2023-03-08T00:20:05.935Z,4.28
2023-03-08T00:21:10.402Z,4.27
2023-03-08T00:22:12.225Z,4.28
2023-03-08T00:23:14.968Z,4.29
2023-03-08T00:24:17.703Z,4.28
2023-03-08T00:25:20.596Z,4.27
2023-03-08T00:26:23.717Z,4.26
2023-03-08T00:27:26.411Z,4.26
2023-03-08T00:28:28.914Z,4.25
2023-03-08T00:29:31.945Z,4.24
2023-03-08T00:30:33.744Z,4.24
2023-03-08T00:31:36.632Z,4.23
2023-03-08T00:32:38.448Z,4.24
2023-03-08T00:33:41.426Z,4.25
2023-03-08T00:34:46.897Z,4.24
2023-03-08T00:35:56.295Z,4.25
2023-03-08T00:36:58.029Z,4.23
2023-03-08T00:38:00.899Z,4.23
2023-03-08T00:39:02.674Z,4.22
2023-03-08T00:40:08.435Z,4.21
2023-03-08T00:41:10.926Z,4.21
2023-03-08T00:42:14.984Z,4.21
2023-03-08T00:43:16.719Z,4.20
2023-03-08T00:44:19.585Z,4.20
2023-03-08T00:45:21.627Z,4.19
2023-03-08T00:46:25.614Z,4.18
2023-03-08T00:47:27.436Z,4.18
2023-03-08T00:48:30.187Z,4.16
2023-03-08T00:49:31.973Z,4.15
2023-03-08T00:50:34.839Z,4.15
2023-03-08T00:51:37.581Z,4.13
2023-03-08T00:52:39.623Z,4.12
2023-03-08T00:53:42.496Z,4.12
2023-03-08T00:54:44.250Z,4.10
2023-03-08T00:55:50.645Z,4.08
2023-03-08T00:56:53.414Z,4.08
2023-03-08T00:57:56.549Z,4.07
2023-03-08T00:58:59.349Z,4.07
2023-03-08T01:00:02.152Z,4.07
2023-03-08T01:01:05.693Z,4.07
2023-03-08T01:02:08.482Z,4.06
2023-03-08T01:03:10.341Z,4.04
2023-03-08T01:04:13.564Z,4.04
2023-03-08T01:05:15.508Z,4.05
2023-03-08T01:06:20.080Z,4.05
2023-03-08T01:07:23.517Z,4.03
2023-03-08T01:08:27.479Z,4.04
2023-03-08T01:09:29.283Z,4.03
2023-03-08T01:10:32.058Z,4.03
2023-03-08T01:11:36.657Z,4.02
2023-03-08T01:12:40.334Z,4.00
2023-03-08T01:13:43.436Z,4.00
2023-03-08T01:14:46.175Z,3.99
2023-03-08T01:15:48.709Z,3.97
2023-03-08T01:16:51.451Z,3.96
2023-03-08T01:17:53.325Z,3.96
2023-03-08T01:18:56.917Z,3.96
2023-03-08T01:19:58.739Z,3.94
2023-03-08T01:21:03.559Z,3.94
2023-03-08T01:22:05.653Z,3.94
2023-03-08T01:23:09.118Z,3.94
2023-03-08T01:24:10.980Z,3.92
2023-03-08T01:25:13.804Z,3.90
2023-03-08T01:26:16.941Z,3.91
2023-03-08T01:27:19.757Z,3.90
2023-03-08T01:28:21.641Z,3.89
2023-03-08T01:29:25.696Z,3.88
2023-03-08T01:30:27.956Z,3.87
2023-03-08T01:31:31.573Z,3.86
2023-03-08T01:32:35.381Z,3.84
2023-03-08T01:33:38.138Z,3.82
2023-03-08T01:34:40.044Z,3.83
2023-03-08T01:35:42.898Z,3.83
2023-03-08T01:36:45.658Z,3.81
2023-03-08T01:37:53.629Z,3.78
2023-03-08T01:38:57.339Z,3.76
2023-03-08T01:39:59.124Z,3.73
2023-03-08T01:41:03.514Z,3.72
2023-03-08T01:42:07.695Z,3.68
2023-03-08T01:43:23.800Z,3.66
2023-03-08T01:44:27.385Z,3.65
2023-03-08T01:46:07.472Z,3.63
2023-03-08T01:47:13.600Z,3.56
2023-03-08T01:48:31.520Z,3.54
2023-03-08T01:49:37.954Z,3.55
2023-03-08T01:50:41.649Z,3.53
2023-03-08T01:51:46.447Z,3.52
2023-03-08T01:52:49.744Z,3.52
2023-03-08T01:53:53.248Z,3.52
2023-03-08T01:54:57.045Z,3.50
2023-03-08T01:55:59.999Z,3.51
2023-03-08T01:57:05.821Z,3.52
2023-03-08T01:58:07.630Z,3.53
2023-03-08T01:59:11.089Z,3.53
2023-03-08T02:00:17.290Z,3.54
2023-03-08T02:01:21.861Z,3.53
2023-03-08T02:02:28.597Z,3.52
2023-03-08T02:03:32.291Z,3.51
2023-03-08T02:04:35.679Z,3.51
2023-03-08T02:05:40.021Z,3.51
2023-03-08T02:06:50.526Z,3.49
2023-03-08T02:07:57.119Z,3.48
2023-03-08T02:09:05.497Z,3.49
2023-03-08T02:10:08.922Z,3.49
2023-03-08T02:11:12.795Z,3.48
2023-03-08T02:12:14.699Z,3.49
2023-03-08T02:13:17.917Z,3.49
2023-03-08T02:14:19.981Z,3.48
2023-03-08T02:15:27.214Z,3.48
2023-03-08T02:16:32.025Z,3.48
2023-03-08T02:17:36.079Z,3.50
2023-03-08T02:18:39.050Z,3.51
2023-03-08T02:19:44.341Z,3.52
2023-03-08T02:20:47.262Z,3.51
2023-03-08T02:21:49.026Z,3.53
2023-03-08T02:22:53.795Z,3.54
2023-03-08T02:23:56.293Z,3.56
2023-03-08T02:24:59.056Z,3.58
2023-03-08T02:26:03.247Z,3.59
2023-03-08T02:27:08.767Z,3.59
2023-03-08T02:28:10.627Z,3.59
2023-03-08T02:29:13.996Z,3.58
2023-03-08T02:30:17.727Z,3.58
2023-03-08T02:31:20.519Z,3.57
2023-03-08T02:32:23.163Z,3.56
2023-03-08T02:33:26.204Z,3.56
2023-03-08T02:34:28.023Z,3.55
2023-03-08T02:35:30.995Z,3.55
2023-03-08T02:36:32.806Z,3.54
2023-03-08T02:37:35.740Z,3.53
2023-03-08T02:38:39.463Z,3.52
2023-03-08T02:39:42.205Z,3.51
2023-03-08T02:40:44.596Z,3.51
2023-03-08T02:41:47.777Z,3.50
2023-03-08T02:42:51.631Z,3.47
2023-03-08T02:43:55.657Z,3.44
2023-03-08T02:44:57.513Z,3.41
2023-03-08T02:46:00.319Z,3.38
2023-03-08T02:47:02.285Z,3.36
2023-03-08T02:48:06.463Z,3.34
2023-03-08T02:49:08.263Z,3.31
2023-03-08T02:50:11.987Z,3.31
2023-03-08T02:51:14.220Z,3.29
2023-03-08T02:52:17.298Z,3.29
2023-03-08T02:53:19.126Z,3.28
2023-03-08T02:54:23.258Z,3.27
2023-03-08T02:55:25.078Z,3.25
2023-03-08T02:56:27.896Z,3.25
2023-03-08T02:57:29.746Z,3.23
2023-03-08T02:58:32.812Z,3.21
2023-03-08T02:59:34.609Z,3.22
2023-03-08T03:00:38.107Z,3.21
2023-03-08T03:01:40.082Z,3.18
2023-03-08T03:02:42.976Z,3.17
2023-03-08T03:03:45.149Z,3.16
2023-03-08T03:04:48.288Z,3.13
2023-03-08T03:05:50.062Z,3.12
2023-03-08T03:06:58.079Z,3.10
2023-03-08T03:08:00.194Z,3.08
2023-03-08T03:09:07.212Z,3.05
2023-03-08T03:10:12.832Z,3.04
2023-03-08T03:11:18.494Z,3.04
2023-03-08T03:12:22.737Z,3.04
2023-03-08T03:13:25.569Z,3.04
2023-03-08T03:14:27.767Z,3.04
2023-03-08T03:15:31.224Z,3.05
2023-03-08T03:16:34.369Z,3.05
2023-03-08T03:17:37.512Z,3.08
2023-03-08T03:18:39.633Z,3.10
2023-03-08T03:19:42.386Z,3.12
2023-03-08T03:20:44.146Z,3.17
2023-03-08T03:21:47.152Z,3.20
2023-03-08T03:22:49.066Z,3.22
2023-03-08T03:23:55.300Z,3.24
2023-03-08T03:25:03.197Z,3.27
2023-03-08T03:26:08.531Z,3.29
2023-03-08T03:27:10.669Z,3.30
2023-03-08T03:28:15.166Z,3.32
2023-03-08T03:29:17.754Z,3.33
2023-03-08T03:30:23.420Z,3.34
2023-03-08T03:31:26.702Z,3.36
2023-03-08T03:32:30.270Z,3.39
2023-03-08T03:33:32.203Z,3.40
2023-03-08T03:34:35.425Z,3.40
2023-03-08T03:35:38.037Z,3.43
2023-03-08T03:36:41.101Z,3.42
2023-03-08T03:37:42.894Z,3.43
2023-03-08T03:38:46.006Z,3.43
2023-03-08T03:39:47.982Z,3.44
2023-03-08T03:41:01.452Z,3.46
2023-03-08T03:42:05.299Z,3.46
2023-03-08T03:43:08.227Z,3.47
2023-03-08T03:44:10.034Z,3.46
2023-03-08T03:45:12.945Z,3.48
2023-03-08T03:46:16.951Z,3.48
2023-03-08T03:47:21.923Z,3.48
2023-03-08T03:48:29.265Z,3.48
2023-03-08T03:49:32.293Z,3.48
2023-03-08T03:50:34.469Z,3.48
2023-03-08T03:51:43.084Z,3.49
2023-03-08T03:52:50.386Z,3.49
2023-03-08T03:53:53.280Z,3.49
2023-03-08T03:54:56.239Z,3.50
2023-03-08T03:56:05.539Z,3.49
2023-03-08T03:57:09.048Z,3.48
2023-03-08T03:58:15.398Z,3.48
2023-03-08T03:59:17.669Z,3.48
2023-03-08T04:00:22.163Z,3.49
2023-03-08T04:01:39.273Z,3.48
2023-03-08T04:02:51.105Z,3.48
2023-03-08T04:03:55.580Z,3.48
2023-03-08T04:04:58.872Z,3.48
2023-03-08T04:06:08.780Z,3.49
2023-03-08T04:07:14.048Z,3.50
2023-03-08T04:08:23.872Z,3.49
2023-03-08T04:09:26.628Z,3.49
2023-03-08T04:10:39.458Z,3.46
2023-03-08T04:11:44.664Z,3.43
2023-03-08T04:12:53.029Z,3.43
2023-03-08T04:13:58.249Z,3.40
2023-03-08T04:15:02.286Z,3.37
2023-03-08T04:16:11.900Z,3.36
2023-03-08T04:17:14.667Z,3.34
2023-03-08T04:18:22.553Z,3.30
2023-03-08T04:19:24.397Z,3.30
2023-03-08T04:20:30.149Z,3.28
2023-03-08T04:21:34.753Z,3.26
2023-03-08T04:22:37.750Z,3.25
2023-03-08T04:23:56.140Z,3.23
2023-03-08T04:24:58.810Z,3.23
2023-03-08T04:26:09.700Z,3.24
2023-03-08T04:27:12.541Z,3.24
2023-03-08T04:28:16.814Z,3.25
2023-03-08T04:29:19.176Z,3.24
2023-03-08T04:30:22.538Z,3.25
2023-03-08T04:31:27.668Z,3.22
2023-03-08T04:32:32.180Z,3.18
2023-03-08T04:33:34.057Z,3.16
2023-03-08T04:34:37.185Z,3.11
2023-03-08T04:35:41.005Z,3.12
2023-03-08T04:36:43.944Z,3.11
2023-03-08T04:37:47.675Z,3.08
2023-03-08T04:38:52.484Z,3.06
2023-03-08T04:39:54.335Z,3.05
2023-03-08T04:41:05.547Z,3.03
2023-03-08T04:42:16.569Z,3.02
2023-03-08T04:43:21.858Z,3.01
2023-03-08T04:44:25.023Z,3.00
2023-03-08T04:45:28.022Z,3.02
2023-03-08T04:46:34.094Z,3.01
2023-03-08T04:47:37.130Z,3.00
2023-03-08T04:48:40.326Z,3.01
2023-03-08T04:49:44.026Z,3.02
2023-03-08T04:50:53.795Z,3.01
2023-03-08T04:51:56.010Z,3.02
2023-03-08T04:52:59.415Z,3.02
2023-03-08T04:54:01.762Z,3.03
2023-03-08T04:55:05.092Z,3.02
2023-03-08T04:56:07.902Z,3.03
2023-03-08T04:57:10.963Z,3.02
2023-03-08T04:58:13.904Z,3.01
2023-03-08T04:59:18.866Z,3.00
2023-03-08T05:00:21.054Z,2.98
2023-03-08T05:01:24.305Z,2.98
2023-03-08T05:02:27.469Z,2.96
2023-03-08T05:03:30.528Z,2.94
2023-03-08T05:04:32.348Z,2.92
2023-03-08T05:05:35.369Z,2.90
2023-03-08T05:06:37.676Z,2.89
2023-03-08T05:07:40.506Z,2.86
2023-03-08T05:08:43.346Z,2.84
2023-03-08T05:09:46.801Z,2.83
2023-03-08T05:10:49.594Z,2.81
2023-03-08T05:11:53.155Z,2.79
2023-03-08T05:12:56.544Z,2.77
2023-03-08T05:14:00.212Z,2.77
2023-03-08T05:15:05.452Z,2.75
2023-03-08T05:16:09.309Z,2.73
2023-03-08T05:17:11.246Z,2.73
2023-03-08T05:18:14.753Z,2.72
2023-03-08T05:19:17.568Z,2.73
2023-03-08T05:20:24.149Z,2.72
2023-03-08T05:21:27.139Z,2.73
2023-03-08T05:22:38.883Z,2.73
2023-03-08T05:23:48.616Z,2.73
2023-03-08T05:24:52.689Z,2.73
2023-03-08T05:25:59.154Z,2.74
2023-03-08T05:27:00.932Z,2.75
2023-03-08T05:28:03.866Z,2.78
2023-03-08T05:29:07.641Z,2.80
2023-03-08T05:30:13.348Z,2.82
2023-03-08T05:31:18.634Z,2.86
2023-03-08T05:32:20.998Z,2.86
2023-03-08T05:33:24.317Z,2.87
2023-03-08T05:34:26.269Z,2.89
2023-03-08T05:35:29.029Z,2.92
2023-03-08T05:36:31.390Z,2.94
2023-03-08T05:37:34.582Z,2.95
2023-03-08T05:38:39.065Z,2.96
2023-03-08T05:39:44.645Z,2.96
2023-03-08T05:41:01.071Z,2.96
2023-03-08T05:42:02.962Z,2.99
2023-03-08T05:43:13.082Z,2.99
2023-03-08T05:44:15.292Z,3.00
2023-03-08T05:45:19.988Z,3.00
2023-03-08T05:46:21.946Z,2.98
2023-03-08T05:47:25.240Z,2.95
2023-03-08T05:48:27.573Z,2.92
2023-03-08T05:49:31.086Z,2.89
2023-03-08T05:50:33.380Z,2.86
2023-03-08T05:51:36.216Z,2.85
2023-03-08T05:52:38.939Z,2.83
2023-03-08T05:53:41.793Z,2.80
2023-03-08T05:54:44.650Z,2.78
2023-03-08T05:55:52.097Z,2.74
2023-03-08T05:56:53.911Z,2.69
2023-03-08T05:58:01.225Z,2.67
2023-03-08T05:59:04.046Z,2.62
2023-03-08T06:00:08.614Z,2.57
2023-03-08T06:01:20.933Z,2.54
2023-03-08T06:02:23.021Z,2.51
2023-03-08T06:03:29.422Z,2.50
2023-03-08T06:04:32.581Z,2.48
2023-03-08T06:05:35.657Z,2.49
2023-03-08T06:06:37.884Z,2.52
2023-03-08T06:07:43.635Z,2.59
2023-03-08T06:08:48.681Z,2.66
2023-03-08T06:09:52.038Z,2.75
2023-03-08T06:10:54.033Z,2.83
2023-03-08T06:11:57.826Z,2.96
2023-03-08T06:13:00.595Z,3.13
2023-03-08T06:14:02.453Z,3.31
2023-03-08T06:15:08.903Z,3.48
2023-03-08T06:16:13.472Z,3.66
2023-03-08T06:17:16.713Z,3.81
2023-03-08T06:18:22.656Z,3.87
2023-03-08T06:19:24.613Z,3.86
2023-03-08T06:20:29.693Z,3.85
2023-03-08T06:21:31.600Z,3.84
2023-03-08T06:22:39.619Z,3.80
2023-03-08T06:23:43.246Z,3.78
2023-03-08T06:24:49.454Z,3.76
2023-03-08T06:25:56.058Z,3.73
2023-03-08T06:26:58.163Z,3.71
2023-03-08T06:28:01.211Z,3.70
2023-03-08T06:29:11.583Z,3.67
2023-03-08T06:30:14.775Z,3.66
2023-03-08T06:31:18.135Z,3.65
2023-03-08T06:32:23.069Z,3.61
2023-03-08T06:33:28.045Z,3.59
2023-03-08T06:34:31.330Z,3.58
2023-03-08T06:35:34.041Z,3.59
2023-03-08T06:36:39.583Z,3.58
2023-03-08T06:37:43.070Z,3.58
2023-03-08T06:38:47.914Z,3.60
2023-03-08T06:39:51.253Z,3.60
2023-03-08T06:40:54.926Z,3.61
2023-03-08T06:41:58.917Z,3.62
2023-03-08T06:43:02.549Z,3.66
2023-03-08T06:44:04.561Z,3.67
2023-03-08T06:45:08.487Z,3.70
2023-03-08T06:46:12.468Z,3.74
2023-03-08T06:47:15.282Z,3.76
2023-03-08T06:48:18.824Z,3.81
2023-03-08T06:49:22.217Z,3.85
2023-03-08T06:50:24.327Z,3.86
2023-03-08T06:51:27.521Z,3.89
2023-03-08T06:52:34.916Z,3.92
2023-03-08T06:53:39.199Z,3.94
2023-03-08T06:54:41.987Z,3.95
2023-03-08T06:55:44.869Z,3.96
2023-03-08T06:56:47.237Z,3.97
2023-03-08T06:57:49.982Z,3.99
2023-03-08T06:58:52.958Z,4.05
2023-03-08T06:59:54.711Z,4.16
2023-03-08T07:00:59.620Z,4.30
2023-03-08T07:02:02.510Z,4.46
2023-03-08T07:03:04.291Z,4.53
2023-03-08T07:04:08.909Z,4.61
2023-03-08T07:05:10.888Z,4.67
2023-03-08T07:06:13.665Z,4.75
2023-03-08T07:07:16.538Z,4.84
2023-03-08T07:08:18.514Z,4.92
2023-03-08T07:09:21.298Z,4.99
2023-03-08T07:10:24.407Z,5.09
2023-03-08T07:11:27.761Z,5.21
2023-03-08T07:12:32.192Z,5.29
2023-03-08T07:13:34.053Z,5.34
2023-03-08T07:14:36.916Z,5.38
2023-03-08T07:15:40.676Z,5.39
2023-03-08T07:16:43.416Z,5.40
2023-03-08T07:17:45.683Z,5.44
2023-03-08T07:18:48.379Z,5.49
2023-03-08T07:19:51.508Z,5.58
2023-03-08T07:20:54.603Z,5.60
2023-03-08T07:21:56.380Z,5.65
2023-03-08T07:23:01.671Z,5.71
2023-03-08T07:24:04.994Z,5.74
2023-03-08T07:25:07.876Z,5.79
2023-03-08T07:26:12.724Z,5.82
2023-03-08T07:27:14.734Z,5.76
2023-03-08T07:28:17.476Z,5.71
2023-03-08T07:29:19.209Z,5.64
2023-03-08T07:30:22.408Z,5.58
2023-03-08T07:31:26.547Z,5.51
2023-03-08T07:32:29.078Z,5.45
2023-03-08T07:33:32.220Z,5.40
2023-03-08T07:34:35.179Z,5.38
2023-03-08T07:35:40.018Z,5.33
2023-03-08T07:36:43.053Z,5.28
2023-03-08T07:37:45.429Z,5.22
2023-03-08T07:38:49.158Z,5.18
2023-03-08T07:39:51.778Z,5.16
2023-03-08T07:40:56.079Z,5.15
2023-03-08T07:41:57.866Z,5.16
2023-03-08T07:43:01.032Z,5.19
2023-03-08T07:44:14.207Z,5.20
2023-03-08T07:45:16.155Z,5.19
2023-03-08T07:46:19.003Z,5.21
2023-03-08T07:47:21.364Z,5.25
2023-03-08T07:48:24.095Z,5.31
2023-03-08T07:49:25.893Z,5.34
2023-03-08T07:50:28.845Z,5.33
2023-03-08T07:51:33.315Z,5.33
2023-03-08T07:52:35.182Z,5.29
2023-03-08T07:53:38.572Z,5.25
2023-03-08T07:54:40.493Z,5.26
2023-03-08T07:55:43.600Z,5.22
2023-03-08T07:56:45.845Z,5.21
2023-03-08T07:57:48.582Z,5.21
2023-03-08T07:58:51.413Z,5.22
2023-03-08T07:59:54.502Z,5.23
2023-03-08T08:00:57.409Z,5.24
2023-03-08T08:01:59.273Z,5.26
2023-03-08T08:03:02.066Z,5.30
2023-03-08T08:04:04.547Z,5.34
2023-03-08T08:05:07.808Z,5.33
2023-03-08T08:06:09.633Z,5.33
2023-03-08T08:07:15.141Z,5.30
2023-03-08T08:08:18.370Z,5.30
2023-03-08T08:09:20.196Z,5.27
2023-03-08T08:10:22.982Z,5.26
2023-03-08T08:11:25.799Z,5.24
2023-03-08T08:12:28.639Z,5.25
2023-03-08T08:13:30.454Z,5.22
2023-03-08T08:14:33.633Z,5.19
2023-03-08T08:15:35.616Z,5.16
2023-03-08T08:16:38.515Z,5.17
2023-03-08T08:17:41.402Z,5.19
2023-03-08T08:18:43.176Z,5.19
2023-03-08T08:19:46.358Z,5.19
2023-03-08T08:20:49.458Z,5.20
2023-03-08T08:21:51.266Z,5.22
2023-03-08T08:22:55.558Z,5.22
2023-03-08T08:23:58.022Z,5.22
2023-03-08T08:25:00.774Z,5.28
2023-03-08T08:26:06.243Z,5.36
2023-03-08T08:27:08.220Z,5.42
2023-03-08T08:28:11.347Z,5.41
2023-03-08T08:29:13.332Z,5.41
2023-03-08T08:30:16.701Z,5.39
2023-03-08T08:31:20.287Z,5.38
2023-03-08T08:32:23.102Z,5.36
2023-03-08T08:33:25.108Z,5.33
2023-03-08T08:34:27.823Z,5.29
2023-03-08T08:35:42.448Z,5.25
2023-03-08T08:37:05.127Z,5.22
2023-03-08T08:38:09.208Z,5.29
2023-03-08T08:39:11.168Z,5.42
2023-03-08T08:40:14.289Z,5.52
2023-03-08T08:41:18.667Z,5.66
2023-03-08T08:42:21.402Z,5.76
2023-03-08T08:43:23.239Z,5.90
2023-03-08T08:44:26.075Z,6.03
2023-03-08T08:45:27.894Z,6.12
2023-03-08T08:46:34.059Z,6.14
2023-03-08T08:47:36.802Z,6.12
2023-03-08T08:48:39.811Z,6.16
2023-03-08T08:49:41.925Z,6.22
2023-03-08T08:50:44.656Z,6.26
2023-03-08T08:51:47.435Z,6.30
2023-03-08T08:52:49.274Z,6.35
2023-03-08T08:53:53.652Z,6.35
2023-03-08T08:54:56.742Z,6.34
2023-03-08T08:55:59.524Z,6.31
2023-03-08T08:57:01.317Z,6.30
2023-03-08T08:58:05.186Z,6.28
2023-03-08T08:59:08.066Z,6.25
2023-03-08T09:00:11.293Z,6.22
2023-03-08T09:01:15.528Z,6.20
2023-03-08T09:02:18.619Z,6.21
2023-03-08T09:03:20.495Z,6.22
2023-03-08T09:04:23.441Z,6.24
2023-03-08T09:05:25.715Z,6.31
2023-03-08T09:06:29.678Z,6.36
2023-03-08T09:07:32.431Z,6.40
2023-03-08T09:08:34.685Z,6.41
2023-03-08T09:09:38.752Z,6.44
2023-03-08T09:10:41.228Z,6.49
2023-03-08T09:11:54.084Z,6.51
2023-03-08T09:12:59.856Z,6.52
2023-03-08T09:14:02.479Z,6.52
2023-03-08T09:15:06.140Z,6.52
2023-03-08T09:16:18.113Z,6.50
2023-03-08T09:17:20.905Z,6.46
2023-03-08T09:18:22.787Z,6.42
2023-03-08T09:19:25.591Z,6.38
2023-03-08T09:20:27.410Z,6.37
2023-03-08T09:21:31.174Z,6.37
2023-03-08T09:22:33.954Z,6.37
2023-03-08T09:23:35.709Z,6.31
2023-03-08T09:24:39.976Z,6.32
2023-03-08T09:25:41.882Z,6.28
2023-03-08T09:26:44.673Z,6.31
2023-03-08T09:27:50.066Z,6.37
2023-03-08T09:28:51.842Z,6.41
2023-03-08T09:29:54.603Z,6.43
2023-03-08T09:30:56.463Z,6.53
2023-03-08T09:31:59.733Z,6.58
2023-03-08T09:33:02.064Z,6.64
2023-03-08T09:34:08.613Z,6.71
2023-03-08T09:35:10.700Z,6.77
2023-03-08T09:36:13.889Z,6.77
2023-03-08T09:37:16.214Z,6.71
2023-03-08T09:38:18.930Z,6.67
2023-03-08T09:39:21.832Z,6.68
2023-03-08T09:40:27.368Z,6.72
2023-03-08T09:41:39.479Z,6.79
2023-03-08T09:42:42.351Z,6.81
2023-03-08T09:43:47.900Z,6.83
2023-03-08T09:45:07.742Z,6.85
2023-03-08T09:46:13.300Z,6.86
2023-03-08T09:47:26.977Z,6.84
2023-03-08T09:48:32.046Z,6.83
2023-03-08T09:49:36.435Z,6.87
2023-03-08T09:50:44.610Z,6.93
2023-03-08T09:51:49.420Z,6.92
2023-03-08T09:52:57.149Z,6.94
2023-03-08T09:54:03.024Z,6.94
2023-03-08T09:55:06.106Z,6.93
2023-03-08T09:56:16.395Z,6.96
2023-03-08T09:57:21.388Z,6.96
2023-03-08T09:58:32.311Z,6.96
2023-03-08T09:59:40.965Z,6.98
2023-03-08T10:00:46.715Z,7.00
2023-03-08T10:01:55.957Z,7.01
2023-03-08T10:03:10.150Z,7.07
2023-03-08T10:04:25.204Z,7.10
2023-03-08T10:05:31.819Z,7.10
2023-03-08T10:06:38.877Z,7.09
2023-03-08T10:08:05.608Z,7.11
2023-03-08T10:09:16.420Z,7.13
2023-03-08T10:10:32.939Z,7.13
2023-03-08T10:11:51.261Z,7.07
2023-03-08T10:13:11.050Z,7.06
2023-03-08T10:14:20.059Z,7.09
2023-03-08T10:15:24.710Z,7.12
2023-03-08T10:16:29.107Z,7.14
2023-03-08T10:17:40.185Z,7.17
2023-03-08T10:18:47.079Z,7.20
2023-03-08T10:19:54.400Z,7.29
2023-03-08T10:20:57.831Z,7.38
2023-03-08T10:22:03.574Z,7.46
2023-03-08T10:23:14.130Z,7.47
2023-03-08T10:24:19.209Z,7.50
2023-03-08T10:25:24.496Z,7.58
2023-03-08T10:26:27.027Z,7.67
2023-03-08T10:27:34.262Z,7.71
2023-03-08T10:28:36.990Z,7.70
2023-03-08T10:29:39.187Z,7.70
2023-03-08T10:30:44.908Z,7.70
2023-03-08T10:31:47.981Z,7.73
2023-03-08T10:32:51.787Z,7.82
2023-03-08T10:34:03.666Z,7.90
2023-03-08T10:35:07.220Z,7.96
2023-03-08T10:36:17.403Z,7.99
2023-03-08T10:37:22.613Z,8.08
2023-03-08T10:38:27.391Z,8.17
2023-03-08T10:39:30.240Z,8.22
2023-03-08T10:40:32.152Z,8.29
2023-03-08T10:41:41.040Z,8.39
2023-03-08T10:42:49.496Z,8.50
2023-03-08T10:43:53.170Z,8.55
2023-03-08T10:44:59.069Z,8.63
2023-03-08T10:46:05.213Z,8.74
2023-03-08T10:47:21.484Z,8.87
2023-03-08T10:48:23.251Z,8.97
2023-03-08T10:49:27.958Z,9.11
2023-03-08T10:50:32.544Z,9.31
2023-03-08T10:51:34.441Z,9.49
2023-03-08T10:52:37.854Z,9.70
2023-03-08T10:53:39.641Z,9.93
2023-03-08T10:54:42.791Z,10.18
2023-03-08T10:55:45.809Z,10.37
2023-03-08T10:56:54.867Z,10.44
2023-03-08T10:58:00.750Z,10.39
2023-03-08T10:59:04.143Z,10.33
2023-03-08T11:00:21.182Z,10.29
2023-03-08T11:01:25.785Z,10.26
2023-03-08T11:02:28.870Z,10.27
2023-03-08T11:03:31.386Z,10.31
2023-03-08T11:04:34.128Z,10.34
2023-03-08T11:05:37.336Z,10.35
2023-03-08T11:06:40.135Z,10.34
2023-03-08T11:07:50.204Z,10.28
2023-03-08T11:08:54.460Z,10.17
2023-03-08T11:10:16.495Z,10.08
2023-03-08T11:11:19.297Z,10.06
2023-03-08T11:12:23.823Z,9.98
2023-03-08T11:13:31.312Z,9.81
2023-03-08T11:14:34.247Z,9.65
2023-03-08T11:15:37.403Z,9.50
2023-03-08T11:16:47.100Z,9.31
2023-03-08T11:17:54.694Z,9.12
2023-03-08T11:19:03.040Z,9.02
2023-03-08T11:20:14.294Z,8.96
2023-03-08T11:21:22.789Z,8.87
2023-03-08T11:22:33.920Z,8.82
2023-03-08T11:23:40.048Z,8.78
2023-03-08T11:24:57.391Z,8.76
2023-03-08T11:26:05.350Z,8.70
2023-03-08T11:27:19.874Z,8.59
2023-03-08T11:28:35.092Z,8.54
2023-03-08T11:29:45.642Z,8.50
2023-03-08T11:30:58.636Z,8.43
2023-03-08T11:32:08.601Z,8.42
2023-03-08T11:33:27.184Z,8.39
2023-03-08T11:34:58.172Z,8.36
2023-03-08T11:36:06.558Z,8.36
2023-03-08T11:37:14.445Z,8.33
2023-03-08T11:38:21.292Z,8.31
2023-03-08T11:39:25.946Z,8.28
2023-03-08T11:40:31.139Z,8.24
2023-03-08T11:41:40.271Z,8.18
2023-03-08T11:42:53.664Z,8.10
2023-03-08T11:44:21.275Z,8.00
2023-03-08T11:45:26.577Z,7.90
2023-03-08T11:46:34.229Z,7.84
2023-03-08T11:48:24.557Z,7.77
2023-03-08T11:49:34.739Z,7.70
2023-03-08T11:50:40.047Z,7.66
2023-03-08T11:51:44.618Z,7.65
2023-03-08T11:52:54.983Z,7.66
2023-03-08T11:54:10.133Z,7.70
2023-03-08T11:55:27.038Z,7.77
2023-03-08T11:56:43.932Z,7.83
2023-03-08T11:57:49.861Z,7.87
2023-03-08T11:58:55.849Z,7.88
2023-03-08T12:00:11.590Z,7.87
2023-03-08T12:01:16.463Z,7.86
2023-03-08T12:02:21.793Z,7.84
2023-03-08T12:03:27.884Z,7.82
2023-03-08T12:04:36.574Z,7.80
2023-03-08T12:05:42.188Z,7.78
2023-03-08T12:06:45.479Z,7.78
2023-03-08T12:07:52.691Z,7.78
2023-03-08T12:08:59.096Z,7.76
2023-03-08T12:10:04.158Z,7.76
2023-03-08T12:11:11.156Z,7.75
2023-03-08T12:12:18.543Z,7.75
2023-03-08T12:13:24.532Z,7.78
2023-03-08T12:14:30.327Z,7.81
2023-03-08T12:15:38.749Z,7.87
2023-03-08T12:16:46.096Z,7.91
2023-03-08T12:17:54.336Z,7.99
2023-03-08T12:18:59.220Z,8.07
2023-03-08T12:20:02.223Z,8.13
2023-03-08T12:21:15.739Z,8.26
2023-03-08T12:22:35.035Z,8.43
2023-03-08T12:23:41.182Z,8.57
2023-03-08T12:24:48.244Z,8.73
2023-03-08T12:25:54.033Z,8.91
2023-03-08T12:26:59.569Z,9.06
2023-03-08T12:28:05.412Z,9.14
2023-03-08T12:29:13.736Z,9.23
2023-03-08T12:30:25.897Z,9.28
2023-03-08T12:31:33.186Z,9.32
2023-03-08T12:32:36.878Z,9.38
2023-03-08T12:33:40.145Z,9.45
2023-03-08T12:34:45.576Z,9.54
2023-03-08T12:35:52.433Z,9.60
2023-03-08T12:36:55.461Z,9.63
2023-03-08T12:37:59.514Z,9.67
2023-03-08T12:39:08.350Z,9.72
2023-03-08T12:40:31.335Z,9.81
2023-03-08T12:41:34.172Z,9.91
2023-03-08T12:42:37.997Z,10.04
2023-03-08T12:43:40.847Z,10.16
2023-03-08T12:44:44.714Z,10.18
2023-03-08T12:45:48.954Z,10.13
2023-03-08T12:47:03.018Z,10.06
2023-03-08T12:48:22.862Z,9.91
2023-03-08T12:49:28.191Z,9.80
2023-03-08T12:50:31.850Z,9.72
2023-03-08T12:51:35.054Z,9.60
2023-03-08T12:52:37.010Z,9.50
2023-03-08T12:53:42.286Z,9.38
2023-03-08T12:54:46.128Z,9.34
2023-03-08T12:55:59.899Z,9.29
2023-03-08T12:57:04.092Z,9.26
2023-03-08T12:58:05.940Z,9.26
2023-03-08T12:59:26.696Z,9.29
2023-03-08T13:00:31.299Z,9.29
2023-03-08T13:01:36.725Z,9.30
2023-03-08T13:02:41.086Z,9.34
2023-03-08T13:03:44.001Z,9.39
2023-03-08T13:04:46.166Z,9.47
2023-03-08T13:05:50.272Z,9.50
2023-03-08T13:07:13.373Z,9.53
2023-03-08T13:08:23.308Z,9.52
2023-03-08T13:09:28.747Z,9.55
2023-03-08T13:10:33.631Z,9.55
2023-03-08T13:11:41.285Z,9.50
2023-03-08T13:13:01.005Z,9.43
2023-03-08T13:14:05.868Z,9.37
2023-03-08T13:15:24.565Z,9.33
2023-03-08T13:16:34.005Z,9.29
2023-03-08T13:17:39.469Z,9.23
2023-03-08T13:18:45.557Z,9.18
2023-03-08T13:19:49.651Z,9.13
2023-03-08T13:21:16.651Z,9.06
2023-03-08T13:22:22.778Z,8.94
2023-03-08T13:23:29.881Z,8.87
2023-03-08T13:24:41.614Z,8.82
2023-03-08T13:25:51.776Z,8.77
2023-03-08T13:27:06.617Z,8.72
2023-03-08T13:28:11.418Z,8.67
2023-03-08T13:29:16.257Z,8.65
2023-03-08T13:30:23.729Z,8.64
2023-03-08T13:31:29.868Z,8.64
2023-03-08T13:32:32.708Z,8.67
2023-03-08T13:33:39.063Z,8.70
2023-03-08T13:34:45.510Z,8.74
2023-03-08T13:35:58.904Z,8.81
2023-03-08T13:37:02.606Z,8.83
2023-03-08T13:38:05.456Z,8.86
2023-03-08T13:39:15.382Z,8.89
2023-03-08T13:40:19.361Z,8.92
2023-03-08T13:41:32.621Z,8.96
2023-03-08T13:42:35.456Z,9.02
2023-03-08T13:43:37.214Z,9.05
2023-03-08T13:44:40.236Z,9.08
2023-03-08T13:45:47.799Z,9.10
2023-03-08T13:46:52.155Z,9.08
2023-03-08T13:47:56.242Z,9.06
2023-03-08T13:48:58.667Z,9.01
2023-03-08T13:50:03.400Z,8.97
2023-03-08T13:51:06.549Z,8.97
2023-03-08T13:52:17.018Z,8.99
2023-03-08T13:53:21.938Z,9.02
2023-03-08T13:54:29.717Z,9.05
2023-03-08T13:55:35.359Z,9.15
2023-03-08T13:56:37.292Z,9.28
2023-03-08T13:57:42.153Z,9.41
2023-03-08T13:58:47.282Z,9.52
2023-03-08T13:59:49.929Z,9.63
2023-03-08T14:01:02.099Z,9.69
2023-03-08T14:02:26.005Z,9.77
2023-03-08T14:03:29.473Z,9.81
2023-03-08T14:04:32.372Z,9.84
2023-03-08T14:05:43.607Z,9.89
2023-03-08T14:06:50.987Z,9.87
2023-03-08T14:07:58.197Z,9.79
2023-03-08T14:09:03.609Z,9.71
2023-03-08T14:10:13.066Z,9.56
2023-03-08T14:11:18.228Z,9.44
2023-03-08T14:12:22.568Z,9.36
2023-03-08T14:13:29.118Z,9.27
2023-03-08T14:14:33.493Z,9.19
2023-03-08T14:15:39.015Z,9.17
2023-03-08T14:16:43.188Z,9.09
2023-03-08T14:17:46.141Z,9.01
2023-03-08T14:18:49.000Z,8.93
2023-03-08T14:19:55.546Z,8.89
2023-03-08T14:21:05.957Z,8.82
2023-03-08T14:22:12.991Z,8.75
2023-03-08T14:23:24.898Z,8.63
2023-03-08T14:24:29.548Z,8.53
2023-03-08T14:25:33.315Z,8.47